sensor_id;sensor_type;location;lat;lon;timestamp;P1;durP1;ratioP1;P2;durP2;ratioP2
15990;SDS011;8100;50.994;4.538;2022-09-13T00:00:40;2.58;;;1.77;;
15990;SDS011;8100;50.994;4.538;2022-09-13T00:03:27;2.50;;;1.83;;
15990;SDS011;8100;50.994;4.538;2022-09-13T00:06:15;4.00;;;1.52;;
15990;SDS011;8100;50.994;4.538;2022-09-13T00:09:04;1.90;;;1.70;;
15990;SDS011;8100;50.994;4.538;2022-09-13T00:11:53;2.10;;;1.77;;
15990;SDS011;8100;50.994;4.538;2022-09-13T00:14:40;2.33;;;1.60;;
15990;SDS011;8100;50.994;4.538;2022-09-13T00:17:27;3.78;;;1.85;;
15990;SDS011;8100;50.994;4.538;2022-09-13T00:20:14;3.75;;;1.77;;
15990;SDS011;8100;50.994;4.538;2022-09-13T00:23:02;2.55;;;1.63;;
15990;SDS011;8100;50.994;4.538;2022-09-13T00:25:49;2.10;;;1.80;;
15990;SDS011;8100;50.994;4.538;2022-09-13T00:28:38;2.15;;;1.60;;
15990;SDS011;8100;50.994;4.538;2022-09-13T00:31:26;4.03;;;1.85;;
15990;SDS011;8100;50.994;4.538;2022-09-13T00:34:14;2.15;;;1.75;;
15990;SDS011;8100;50.994;4.538;2022-09-13T00:37:01;3.15;;;1.77;;
15990;SDS011;8100;50.994;4.538;2022-09-13T00:39:48;2.60;;;1.80;;
15990;SDS011;8100;50.994;4.538;2022-09-13T00:42:35;2.97;;;1.70;;
15990;SDS011;8100;50.994;4.538;2022-09-13T00:45:24;1.80;;;1.60;;
15990;SDS011;8100;50.994;4.538;2022-09-13T00:48:13;2.83;;;1.73;;
15990;SDS011;8100;50.994;4.538;2022-09-13T00:51:06;2.88;;;1.75;;
15990;SDS011;8100;50.994;4.538;2022-09-13T00:53:55;3.65;;;1.70;;
15990;SDS011;8100;50.994;4.538;2022-09-13T00:56:45;1.75;;;1.50;;
15990;SDS011;8100;50.994;4.538;2022-09-13T00:59:36;3.40;;;1.90;;
15990;SDS011;8100;50.994;4.538;2022-09-13T01:02:29;2.28;;;1.70;;
15990;SDS011;8100;50.994;4.538;2022-09-13T01:05:16;1.70;;;1.40;;
15990;SDS011;8100;50.994;4.538;2022-09-13T01:08:06;3.15;;;1.83;;
15990;SDS011;8100;50.994;4.538;2022-09-13T01:11:07;4.47;;;1.65;;
15990;SDS011;8100;50.994;4.538;2022-09-13T01:13:58;2.05;;;1.70;;
15990;SDS011;8100;50.994;4.538;2022-09-13T01:16:46;2.85;;;1.77;;
15990;SDS011;8100;50.994;4.538;2022-09-13T01:19:35;3.58;;;1.92;;
15990;SDS011;8100;50.994;4.538;2022-09-13T01:22:36;2.15;;;1.60;;
15990;SDS011;8100;50.994;4.538;2022-09-13T01:32:15;1.73;;;1.60;;
15990;SDS011;8100;50.994;4.538;2022-09-13T01:35:12;2.40;;;1.80;;
15990;SDS011;8100;50.994;4.538;2022-09-13T01:38:10;2.33;;;1.80;;
15990;SDS011;8100;50.994;4.538;2022-09-13T01:41:13;2.45;;;2.00;;
15990;SDS011;8100;50.994;4.538;2022-09-13T01:44:13;1.90;;;1.60;;
15990;SDS011;8100;50.994;4.538;2022-09-13T01:47:12;2.60;;;1.85;;
15990;SDS011;8100;50.994;4.538;2022-09-13T01:50:11;1.50;;;1.40;;
15990;SDS011;8100;50.994;4.538;2022-09-13T01:53:04;2.50;;;1.77;;
15990;SDS011;8100;50.994;4.538;2022-09-13T01:55:56;3.80;;;1.88;;
15990;SDS011;8100;50.994;4.538;2022-09-13T01:58:50;3.47;;;1.85;;
15990;SDS011;8100;50.994;4.538;2022-09-13T02:01:42;2.05;;;1.60;;
15990;SDS011;8100;50.994;4.538;2022-09-13T02:04:36;2.13;;;1.58;;
15990;SDS011;8100;50.994;4.538;2022-09-13T02:07:28;2.72;;;1.40;;
15990;SDS011;8100;50.994;4.538;2022-09-13T02:10:20;3.22;;;1.60;;
15990;SDS011;8100;50.994;4.538;2022-09-13T02:13:15;3.33;;;1.77;;
15990;SDS011;8100;50.994;4.538;2022-09-13T02:16:07;3.35;;;1.70;;
15990;SDS011;8100;50.994;4.538;2022-09-13T02:18:59;2.38;;;1.90;;
15990;SDS011;8100;50.994;4.538;2022-09-13T02:21:51;2.33;;;1.70;;
15990;SDS011;8100;50.994;4.538;2022-09-13T02:24:44;2.67;;;1.58;;
15990;SDS011;8100;50.994;4.538;2022-09-13T02:27:34;2.90;;;1.70;;
15990;SDS011;8100;50.994;4.538;2022-09-13T02:30:24;2.50;;;1.63;;
15990;SDS011;8100;50.994;4.538;2022-09-13T02:33:13;2.78;;;1.67;;
15990;SDS011;8100;50.994;4.538;2022-09-13T02:36:04;2.30;;;1.73;;
15990;SDS011;8100;50.994;4.538;2022-09-13T02:38:56;2.40;;;1.70;;
15990;SDS011;8100;50.994;4.538;2022-09-13T02:41:47;2.17;;;1.67;;
15990;SDS011;8100;50.994;4.538;2022-09-13T02:44:40;2.28;;;1.67;;
15990;SDS011;8100;50.994;4.538;2022-09-13T02:47:32;2.58;;;1.80;;
15990;SDS011;8100;50.994;4.538;2022-09-13T02:50:31;2.35;;;1.55;;
15990;SDS011;8100;50.994;4.538;2022-09-13T02:53:28;3.35;;;1.80;;
15990;SDS011;8100;50.994;4.538;2022-09-13T02:56:26;3.40;;;1.70;;
15990;SDS011;8100;50.994;4.538;2022-09-13T02:59:21;1.95;;;1.70;;
15990;SDS011;8100;50.994;4.538;2022-09-13T03:02:11;2.22;;;1.67;;
15990;SDS011;8100;50.994;4.538;2022-09-13T03:05:01;1.80;;;1.58;;
15990;SDS011;8100;50.994;4.538;2022-09-13T03:07:49;3.50;;;1.80;;
15990;SDS011;8100;50.994;4.538;2022-09-13T03:10:42;2.65;;;1.70;;
15990;SDS011;8100;50.994;4.538;2022-09-13T03:13:42;2.15;;;1.95;;
15990;SDS011;8100;50.994;4.538;2022-09-13T03:16:51;2.80;;;1.67;;
15990;SDS011;8100;50.994;4.538;2022-09-13T03:19:59;2.08;;;1.75;;
15990;SDS011;8100;50.994;4.538;2022-09-13T03:23:11;2.35;;;1.65;;
15990;SDS011;8100;50.994;4.538;2022-09-13T03:26:35;1.90;;;1.50;;
15990;SDS011;8100;50.994;4.538;2022-09-13T03:29:33;2.03;;;1.50;;
15990;SDS011;8100;50.994;4.538;2022-09-13T03:32:27;1.80;;;1.50;;
15990;SDS011;8100;50.994;4.538;2022-09-13T03:35:24;5.07;;;1.73;;
15990;SDS011;8100;50.994;4.538;2022-09-13T03:38:18;2.60;;;1.67;;
15990;SDS011;8100;50.994;4.538;2022-09-13T03:41:09;1.88;;;1.58;;
15990;SDS011;8100;50.994;4.538;2022-09-13T03:44:01;4.88;;;1.67;;
15990;SDS011;8100;50.994;4.538;2022-09-13T03:46:53;1.65;;;1.50;;
15990;SDS011;8100;50.994;4.538;2022-09-13T03:49:44;2.75;;;1.70;;
15990;SDS011;8100;50.994;4.538;2022-09-13T03:52:31;2.53;;;1.70;;
15990;SDS011;8100;50.994;4.538;2022-09-13T03:55:19;2.42;;;1.90;;
15990;SDS011;8100;50.994;4.538;2022-09-13T03:58:08;2.35;;;1.80;;
15990;SDS011;8100;50.994;4.538;2022-09-13T04:00:57;2.75;;;1.70;;
15990;SDS011;8100;50.994;4.538;2022-09-13T04:03:46;1.98;;;1.63;;
15990;SDS011;8100;50.994;4.538;2022-09-13T04:06:33;2.33;;;1.60;;
15990;SDS011;8100;50.994;4.538;2022-09-13T04:09:20;2.33;;;1.60;;
15990;SDS011;8100;50.994;4.538;2022-09-13T04:12:08;2.20;;;1.75;;
15990;SDS011;8100;50.994;4.538;2022-09-13T04:14:55;1.70;;;1.58;;
15990;SDS011;8100;50.994;4.538;2022-09-13T04:17:43;2.10;;;1.45;;
15990;SDS011;8100;50.994;4.538;2022-09-13T04:20:31;3.00;;;1.90;;
15990;SDS011;8100;50.994;4.538;2022-09-13T04:23:18;2.08;;;1.65;;
15990;SDS011;8100;50.994;4.538;2022-09-13T04:26:06;2.00;;;1.80;;
15990;SDS011;8100;50.994;4.538;2022-09-13T04:28:53;2.13;;;1.50;;
15990;SDS011;8100;50.994;4.538;2022-09-13T04:31:40;2.10;;;1.55;;
15990;SDS011;8100;50.994;4.538;2022-09-13T04:34:27;2.67;;;1.80;;
15990;SDS011;8100;50.994;4.538;2022-09-13T04:37:16;2.65;;;1.75;;
15990;SDS011;8100;50.994;4.538;2022-09-13T04:40:04;2.15;;;1.60;;
15990;SDS011;8100;50.994;4.538;2022-09-13T04:42:52;5.30;;;1.70;;
15990;SDS011;8100;50.994;4.538;2022-09-13T04:45:39;4.10;;;2.10;;
15990;SDS011;8100;50.994;4.538;2022-09-13T04:48:26;3.75;;;2.10;;
15990;SDS011;8100;50.994;4.538;2022-09-13T04:51:14;2.67;;;1.67;;
15990;SDS011;8100;50.994;4.538;2022-09-13T04:54:03;4.20;;;1.60;;
15990;SDS011;8100;50.994;4.538;2022-09-13T04:56:51;2.45;;;1.83;;
15990;SDS011;8100;50.994;4.538;2022-09-13T04:59:39;2.38;;;1.80;;
15990;SDS011;8100;50.994;4.538;2022-09-13T05:02:26;3.40;;;1.63;;
15990;SDS011;8100;50.994;4.538;2022-09-13T05:05:13;2.67;;;1.80;;
15990;SDS011;8100;50.994;4.538;2022-09-13T05:08:01;1.92;;;1.65;;
15990;SDS011;8100;50.994;4.538;2022-09-13T05:10:49;4.25;;;1.80;;
15990;SDS011;8100;50.994;4.538;2022-09-13T05:13:37;2.65;;;1.48;;
15990;SDS011;8100;50.994;4.538;2022-09-13T05:16:24;2.42;;;1.48;;
15990;SDS011;8100;50.994;4.538;2022-09-13T05:19:12;5.05;;;1.80;;
15990;SDS011;8100;50.994;4.538;2022-09-13T05:22:00;2.78;;;1.90;;
15990;SDS011;8100;50.994;4.538;2022-09-13T05:24:47;4.70;;;2.00;;
15990;SDS011;8100;50.994;4.538;2022-09-13T05:27:36;2.92;;;1.90;;
15990;SDS011;8100;50.994;4.538;2022-09-13T05:30:23;2.10;;;1.90;;
15990;SDS011;8100;50.994;4.538;2022-09-13T05:33:10;2.92;;;1.88;;
15990;SDS011;8100;50.994;4.538;2022-09-13T05:35:58;3.40;;;1.90;;
15990;SDS011;8100;50.994;4.538;2022-09-13T05:38:45;5.38;;;2.20;;
15990;SDS011;8100;50.994;4.538;2022-09-13T05:41:32;4.45;;;2.20;;
15990;SDS011;8100;50.994;4.538;2022-09-13T05:44:21;2.83;;;2.10;;
15990;SDS011;8100;50.994;4.538;2022-09-13T05:47:08;3.33;;;2.05;;
15990;SDS011;8100;50.994;4.538;2022-09-13T05:49:55;5.68;;;1.90;;
15990;SDS011;8100;50.994;4.538;2022-09-13T05:52:42;2.88;;;1.75;;
15990;SDS011;8100;50.994;4.538;2022-09-13T05:55:30;5.85;;;2.15;;
15990;SDS011;8100;50.994;4.538;2022-09-13T05:58:17;3.30;;;2.05;;
15990;SDS011;8100;50.994;4.538;2022-09-13T06:01:06;4.18;;;2.00;;
15990;SDS011;8100;50.994;4.538;2022-09-13T06:03:54;3.47;;;2.28;;
15990;SDS011;8100;50.994;4.538;2022-09-13T06:06:43;2.60;;;1.80;;
15990;SDS011;8100;50.994;4.538;2022-09-13T06:09:31;3.58;;;2.33;;
15990;SDS011;8100;50.994;4.538;2022-09-13T06:12:18;2.50;;;1.80;;
15990;SDS011;8100;50.994;4.538;2022-09-13T06:15:05;3.20;;;2.00;;
15990;SDS011;8100;50.994;4.538;2022-09-13T06:17:56;3.10;;;1.80;;
15990;SDS011;8100;50.994;4.538;2022-09-13T06:20:43;3.47;;;1.92;;
15990;SDS011;8100;50.994;4.538;2022-09-13T06:23:31;6.28;;;1.98;;
15990;SDS011;8100;50.994;4.538;2022-09-13T06:26:18;4.05;;;1.95;;
15990;SDS011;8100;50.994;4.538;2022-09-13T06:29:09;5.22;;;1.92;;
15990;SDS011;8100;50.994;4.538;2022-09-13T06:31:57;2.97;;;2.00;;
15990;SDS011;8100;50.994;4.538;2022-09-13T06:34:45;4.75;;;1.73;;
15990;SDS011;8100;50.994;4.538;2022-09-13T06:37:32;6.38;;;2.20;;
15990;SDS011;8100;50.994;4.538;2022-09-13T06:40:20;5.90;;;2.20;;
15990;SDS011;8100;50.994;4.538;2022-09-13T06:43:07;3.65;;;1.75;;
15990;SDS011;8100;50.994;4.538;2022-09-13T06:45:58;4.78;;;2.33;;
15990;SDS011;8100;50.994;4.538;2022-09-13T06:48:45;5.22;;;2.50;;
15990;SDS011;8100;50.994;4.538;2022-09-13T06:51:35;5.45;;;2.40;;
15990;SDS011;8100;50.994;4.538;2022-09-13T06:54:22;8.25;;;2.92;;
15990;SDS011;8100;50.994;4.538;2022-09-13T06:57:09;5.22;;;3.53;;
15990;SDS011;8100;50.994;4.538;2022-09-13T06:59:57;7.65;;;3.05;;
15990;SDS011;8100;50.994;4.538;2022-09-13T07:02:44;7.72;;;2.72;;
15990;SDS011;8100;50.994;4.538;2022-09-13T07:05:36;9.80;;;2.45;;
15990;SDS011;8100;50.994;4.538;2022-09-13T07:08:24;4.78;;;2.42;;
15990;SDS011;8100;50.994;4.538;2022-09-13T07:11:12;4.70;;;2.22;;
15990;SDS011;8100;50.994;4.538;2022-09-13T07:14:02;7.80;;;2.42;;
15990;SDS011;8100;50.994;4.538;2022-09-13T07:16:51;5.43;;;2.50;;
15990;SDS011;8100;50.994;4.538;2022-09-13T07:19:39;7.00;;;2.67;;
15990;SDS011;8100;50.994;4.538;2022-09-13T07:22:26;4.05;;;2.70;;
15990;SDS011;8100;50.994;4.538;2022-09-13T07:25:15;3.42;;;2.20;;
15990;SDS011;8100;50.994;4.538;2022-09-13T07:28:02;4.78;;;2.30;;
15990;SDS011;8100;50.994;4.538;2022-09-13T07:30:49;4.13;;;2.40;;
15990;SDS011;8100;50.994;4.538;2022-09-13T07:33:37;7.38;;;2.40;;
15990;SDS011;8100;50.994;4.538;2022-09-13T07:36:24;5.50;;;2.60;;
15990;SDS011;8100;50.994;4.538;2022-09-13T07:39:12;3.72;;;2.55;;
15990;SDS011;8100;50.994;4.538;2022-09-13T07:42:01;5.10;;;2.38;;
15990;SDS011;8100;50.994;4.538;2022-09-13T07:44:48;8.32;;;3.03;;
15990;SDS011;8100;50.994;4.538;2022-09-13T07:47:35;4.85;;;2.40;;
15990;SDS011;8100;50.994;4.538;2022-09-13T07:50:22;4.70;;;2.70;;
15990;SDS011;8100;50.994;4.538;2022-09-13T07:53:09;6.22;;;2.67;;
15990;SDS011;8100;50.994;4.538;2022-09-13T07:56:00;4.57;;;2.40;;
15990;SDS011;8100;50.994;4.538;2022-09-13T07:58:50;3.63;;;2.45;;
15990;SDS011;8100;50.994;4.538;2022-09-13T08:01:39;7.20;;;2.53;;
15990;SDS011;8100;50.994;4.538;2022-09-13T08:04:27;4.32;;;2.63;;
15990;SDS011;8100;50.994;4.538;2022-09-13T08:07:14;4.82;;;2.75;;
15990;SDS011;8100;50.994;4.538;2022-09-13T08:10:02;4.97;;;2.65;;
15990;SDS011;8100;50.994;4.538;2022-09-13T08:12:49;3.65;;;2.78;;
15990;SDS011;8100;50.994;4.538;2022-09-13T08:15:37;4.40;;;3.10;;
15990;SDS011;8100;50.994;4.538;2022-09-13T08:18:25;6.93;;;3.40;;
15990;SDS011;8100;50.994;4.538;2022-09-13T08:21:12;5.40;;;3.33;;
15990;SDS011;8100;50.994;4.538;2022-09-13T08:24:00;5.30;;;3.08;;
15990;SDS011;8100;50.994;4.538;2022-09-13T08:26:48;6.00;;;3.92;;
15990;SDS011;8100;50.994;4.538;2022-09-13T08:29:36;6.05;;;3.72;;
15990;SDS011;8100;50.994;4.538;2022-09-13T08:32:24;4.60;;;3.35;;
15990;SDS011;8100;50.994;4.538;2022-09-13T08:35:13;10.48;;;4.57;;
15990;SDS011;8100;50.994;4.538;2022-09-13T08:38:00;8.07;;;5.10;;
15990;SDS011;8100;50.994;4.538;2022-09-13T08:40:49;9.93;;;4.93;;
15990;SDS011;8100;50.994;4.538;2022-09-13T08:43:42;10.48;;;4.72;;
15990;SDS011;8100;50.994;4.538;2022-09-13T08:46:35;7.50;;;4.35;;
15990;SDS011;8100;50.994;4.538;2022-09-13T08:49:27;6.93;;;4.90;;
15990;SDS011;8100;50.994;4.538;2022-09-13T08:52:19;9.88;;;4.60;;
15990;SDS011;8100;50.994;4.538;2022-09-13T08:55:24;6.70;;;4.65;;
15990;SDS011;8100;50.994;4.538;2022-09-13T09:01:39;7.95;;;4.50;;
15990;SDS011;8100;50.994;4.538;2022-09-13T09:04:38;7.57;;;4.45;;
15990;SDS011;8100;50.994;4.538;2022-09-13T09:07:31;7.88;;;4.22;;
15990;SDS011;8100;50.994;4.538;2022-09-13T09:10:23;7.25;;;4.20;;
15990;SDS011;8100;50.994;4.538;2022-09-13T09:13:16;9.82;;;4.18;;
15990;SDS011;8100;50.994;4.538;2022-09-13T09:16:11;7.15;;;4.35;;
15990;SDS011;8100;50.994;4.538;2022-09-13T09:19:15;7.47;;;4.03;;
15990;SDS011;8100;50.994;4.538;2022-09-13T09:22:10;5.68;;;3.97;;
15990;SDS011;8100;50.994;4.538;2022-09-13T09:25:02;7.32;;;3.90;;
15990;SDS011;8100;50.994;4.538;2022-09-13T09:27:51;6.72;;;4.00;;
15990;SDS011;8100;50.994;4.538;2022-09-13T09:30:40;7.00;;;4.20;;
15990;SDS011;8100;50.994;4.538;2022-09-13T09:33:41;9.52;;;4.53;;
15990;SDS011;8100;50.994;4.538;2022-09-13T09:36:38;6.25;;;3.92;;
15990;SDS011;8100;50.994;4.538;2022-09-13T09:39:30;6.10;;;4.40;;
15990;SDS011;8100;50.994;4.538;2022-09-13T09:42:23;8.38;;;4.00;;
15990;SDS011;8100;50.994;4.538;2022-09-13T09:45:19;5.47;;;3.65;;
15990;SDS011;8100;50.994;4.538;2022-09-13T09:48:12;5.45;;;3.60;;
15990;SDS011;8100;50.994;4.538;2022-09-13T09:51:04;6.88;;;3.47;;
15990;SDS011;8100;50.994;4.538;2022-09-13T09:53:57;7.22;;;3.70;;
15990;SDS011;8100;50.994;4.538;2022-09-13T09:56:52;5.63;;;3.30;;
15990;SDS011;8100;50.994;4.538;2022-09-13T09:59:40;5.93;;;3.50;;
15990;SDS011;8100;50.994;4.538;2022-09-13T10:02:27;5.88;;;3.30;;
15990;SDS011;8100;50.994;4.538;2022-09-13T10:05:17;5.80;;;3.78;;
15990;SDS011;8100;50.994;4.538;2022-09-13T10:08:05;6.47;;;3.45;;
15990;SDS011;8100;50.994;4.538;2022-09-13T10:10:54;5.63;;;3.50;;
15990;SDS011;8100;50.994;4.538;2022-09-13T10:13:57;5.00;;;3.15;;
15990;SDS011;8100;50.994;4.538;2022-09-13T10:16:45;5.55;;;3.17;;
15990;SDS011;8100;50.994;4.538;2022-09-13T10:19:36;4.53;;;3.50;;
15990;SDS011;8100;50.994;4.538;2022-09-13T10:22:24;4.00;;;2.78;;
15990;SDS011;8100;50.994;4.538;2022-09-13T10:25:14;5.13;;;2.60;;
15990;SDS011;8100;50.994;4.538;2022-09-13T10:28:10;8.05;;;3.25;;
15990;SDS011;8100;50.994;4.538;2022-09-13T10:31:02;4.40;;;3.17;;
15990;SDS011;8100;50.994;4.538;2022-09-13T10:33:55;5.22;;;2.95;;
15990;SDS011;8100;50.994;4.538;2022-09-13T10:36:47;4.63;;;3.03;;
15990;SDS011;8100;50.994;4.538;2022-09-13T10:39:46;4.45;;;2.88;;
15990;SDS011;8100;50.994;4.538;2022-09-13T10:42:38;5.75;;;3.08;;
15990;SDS011;8100;50.994;4.538;2022-09-13T10:45:25;6.05;;;3.60;;
15990;SDS011;8100;50.994;4.538;2022-09-13T10:48:17;4.95;;;2.60;;
15990;SDS011;8100;50.994;4.538;2022-09-13T10:51:06;4.82;;;3.22;;
15990;SDS011;8100;50.994;4.538;2022-09-13T10:54:15;3.65;;;2.40;;
15990;SDS011;8100;50.994;4.538;2022-09-13T10:57:08;7.68;;;3.15;;
15990;SDS011;8100;50.994;4.538;2022-09-13T11:00:17;10.02;;;3.10;;
15990;SDS011;8100;50.994;4.538;2022-09-13T11:03:10;6.22;;;4.03;;
15990;SDS011;8100;50.994;4.538;2022-09-13T11:06:18;5.90;;;3.00;;
15990;SDS011;8100;50.994;4.538;2022-09-13T11:09:12;5.30;;;3.33;;
15990;SDS011;8100;50.994;4.538;2022-09-13T11:12:05;5.90;;;3.65;;
15990;SDS011;8100;50.994;4.538;2022-09-13T11:15:00;7.30;;;4.00;;
15990;SDS011;8100;50.994;4.538;2022-09-13T11:17:57;7.63;;;4.00;;
15990;SDS011;8100;50.994;4.538;2022-09-13T11:21:05;6.05;;;3.08;;
15990;SDS011;8100;50.994;4.538;2022-09-13T11:24:16;6.47;;;3.90;;
15990;SDS011;8100;50.994;4.538;2022-09-13T11:27:28;7.38;;;4.30;;
15990;SDS011;8100;50.994;4.538;2022-09-13T11:30:23;8.27;;;3.65;;
15990;SDS011;8100;50.994;4.538;2022-09-13T11:33:19;7.60;;;4.38;;
15990;SDS011;8100;50.994;4.538;2022-09-13T11:36:21;6.85;;;4.50;;
15990;SDS011;8100;50.994;4.538;2022-09-13T11:39:22;8.65;;;3.95;;
15990;SDS011;8100;50.994;4.538;2022-09-13T11:42:23;7.47;;;4.20;;
15990;SDS011;8100;50.994;4.538;2022-09-13T11:45:23;7.57;;;3.42;;
15990;SDS011;8100;50.994;4.538;2022-09-13T11:48:24;8.30;;;2.97;;
15990;SDS011;8100;50.994;4.538;2022-09-13T11:51:45;5.05;;;3.08;;
15990;SDS011;8100;50.994;4.538;2022-09-13T11:54:44;4.75;;;2.85;;
15990;SDS011;8100;50.994;4.538;2022-09-13T11:57:44;5.13;;;2.85;;
15990;SDS011;8100;50.994;4.538;2022-09-13T12:00:35;4.88;;;2.55;;
15990;SDS011;8100;50.994;4.538;2022-09-13T12:03:29;5.72;;;3.05;;
15990;SDS011;8100;50.994;4.538;2022-09-13T12:06:21;5.28;;;3.05;;
15990;SDS011;8100;50.994;4.538;2022-09-13T12:09:14;5.20;;;2.92;;
15990;SDS011;8100;50.994;4.538;2022-09-13T12:12:09;3.42;;;2.53;;
15990;SDS011;8100;50.994;4.538;2022-09-13T12:15:00;3.67;;;2.55;;
15990;SDS011;8100;50.994;4.538;2022-09-13T12:17:53;3.60;;;2.53;;
15990;SDS011;8100;50.994;4.538;2022-09-13T12:20:46;4.93;;;2.80;;
15990;SDS011;8100;50.994;4.538;2022-09-13T12:23:36;7.05;;;2.65;;
15990;SDS011;8100;50.994;4.538;2022-09-13T12:26:30;4.93;;;2.30;;
15990;SDS011;8100;50.994;4.538;2022-09-13T12:29:23;7.30;;;2.97;;
15990;SDS011;8100;50.994;4.538;2022-09-13T12:32:16;5.78;;;2.58;;
15990;SDS011;8100;50.994;4.538;2022-09-13T12:35:04;4.10;;;3.03;;
15990;SDS011;8100;50.994;4.538;2022-09-13T12:41:21;5.60;;;2.72;;
15990;SDS011;8100;50.994;4.538;2022-09-13T12:44:22;4.82;;;2.15;;
15990;SDS011;8100;50.994;4.538;2022-09-13T12:47:26;5.53;;;2.80;;
15990;SDS011;8100;50.994;4.538;2022-09-13T12:50:34;6.68;;;2.95;;
15990;SDS011;8100;50.994;4.538;2022-09-13T12:53:53;3.35;;;2.35;;
15990;SDS011;8100;50.994;4.538;2022-09-13T12:57:12;4.90;;;2.80;;
15990;SDS011;8100;50.994;4.538;2022-09-13T13:00:11;6.45;;;2.70;;
15990;SDS011;8100;50.994;4.538;2022-09-13T13:03:05;3.05;;;2.50;;
15990;SDS011;8100;50.994;4.538;2022-09-13T13:06:06;2.92;;;2.42;;
15990;SDS011;8100;50.994;4.538;2022-09-13T13:08:57;4.38;;;2.28;;
15990;SDS011;8100;50.994;4.538;2022-09-13T13:11:46;3.47;;;2.03;;
15990;SDS011;8100;50.994;4.538;2022-09-13T13:14:43;4.00;;;2.42;;
15990;SDS011;8100;50.994;4.538;2022-09-13T13:17:43;5.05;;;2.88;;
15990;SDS011;8100;50.994;4.538;2022-09-13T13:20:44;3.65;;;2.80;;
15990;SDS011;8100;50.994;4.538;2022-09-13T13:23:34;4.03;;;2.13;;
15990;SDS011;8100;50.994;4.538;2022-09-13T13:29:32;4.68;;;2.85;;
15990;SDS011;8100;50.994;4.538;2022-09-13T13:32:19;3.95;;;2.40;;
15990;SDS011;8100;50.994;4.538;2022-09-13T13:38:31;5.10;;;2.58;;
15990;SDS011;8100;50.994;4.538;2022-09-13T13:41:45;4.45;;;2.58;;
15990;SDS011;8100;50.994;4.538;2022-09-13T13:44:55;4.45;;;2.67;;
15990;SDS011;8100;50.994;4.538;2022-09-13T13:48:08;8.95;;;2.92;;
15990;SDS011;8100;50.994;4.538;2022-09-13T13:51:21;3.75;;;2.50;;
15990;SDS011;8100;50.994;4.538;2022-09-13T13:57:20;5.20;;;2.47;;
15990;SDS011;8100;50.994;4.538;2022-09-13T14:00:10;3.08;;;2.47;;
15990;SDS011;8100;50.994;4.538;2022-09-13T14:03:04;3.42;;;2.65;;
15990;SDS011;8100;50.994;4.538;2022-09-13T14:06:05;4.70;;;2.60;;
15990;SDS011;8100;50.994;4.538;2022-09-13T14:09:02;4.72;;;3.00;;
15990;SDS011;8100;50.994;4.538;2022-09-13T14:11:59;5.10;;;2.92;;
15990;SDS011;8100;50.994;4.538;2022-09-13T14:15:15;6.28;;;3.15;;
15990;SDS011;8100;50.994;4.538;2022-09-13T14:18:23;5.60;;;2.85;;
15990;SDS011;8100;50.994;4.538;2022-09-13T14:21:32;3.15;;;2.70;;
15990;SDS011;8100;50.994;4.538;2022-09-13T14:24:21;6.68;;;2.88;;
15990;SDS011;8100;50.994;4.538;2022-09-13T14:27:12;6.97;;;2.60;;
15990;SDS011;8100;50.994;4.538;2022-09-13T14:30:03;5.05;;;3.17;;
15990;SDS011;8100;50.994;4.538;2022-09-13T14:33:01;7.05;;;3.38;;
15990;SDS011;8100;50.994;4.538;2022-09-13T14:35:55;6.55;;;3.45;;
15990;SDS011;8100;50.994;4.538;2022-09-13T14:38:46;5.45;;;3.15;;
15990;SDS011;8100;50.994;4.538;2022-09-13T14:41:36;4.28;;;3.17;;
15990;SDS011;8100;50.994;4.538;2022-09-13T14:44:24;5.35;;;3.17;;
15990;SDS011;8100;50.994;4.538;2022-09-13T14:47:14;4.03;;;2.97;;
15990;SDS011;8100;50.994;4.538;2022-09-13T14:50:05;4.45;;;3.28;;
15990;SDS011;8100;50.994;4.538;2022-09-13T14:52:58;5.97;;;3.10;;
15990;SDS011;8100;50.994;4.538;2022-09-13T14:55:48;6.93;;;3.38;;
15990;SDS011;8100;50.994;4.538;2022-09-13T14:58:41;4.60;;;3.10;;
15990;SDS011;8100;50.994;4.538;2022-09-13T15:01:36;8.55;;;3.33;;
15990;SDS011;8100;50.994;4.538;2022-09-13T15:04:25;5.53;;;3.40;;
15990;SDS011;8100;50.994;4.538;2022-09-13T15:07:17;4.20;;;3.30;;
15990;SDS011;8100;50.994;4.538;2022-09-13T15:10:08;5.07;;;3.60;;
15990;SDS011;8100;50.994;4.538;2022-09-13T15:13:07;5.53;;;2.97;;
15990;SDS011;8100;50.994;4.538;2022-09-13T15:15:57;6.82;;;3.92;;
15990;SDS011;8100;50.994;4.538;2022-09-13T15:18:44;4.20;;;2.90;;
15990;SDS011;8100;50.994;4.538;2022-09-13T15:21:32;5.88;;;3.17;;
15990;SDS011;8100;50.994;4.538;2022-09-13T15:24:24;5.18;;;3.35;;
15990;SDS011;8100;50.994;4.538;2022-09-13T15:27:24;4.68;;;3.15;;
15990;SDS011;8100;50.994;4.538;2022-09-13T15:30:19;5.78;;;3.53;;
15990;SDS011;8100;50.994;4.538;2022-09-13T15:33:17;5.10;;;3.45;;
15990;SDS011;8100;50.994;4.538;2022-09-13T15:36:14;4.38;;;3.33;;
15990;SDS011;8100;50.994;4.538;2022-09-13T15:39:13;7.45;;;3.80;;
15990;SDS011;8100;50.994;4.538;2022-09-13T15:42:02;6.82;;;4.15;;
15990;SDS011;8100;50.994;4.538;2022-09-13T15:44:49;4.75;;;3.78;;
15990;SDS011;8100;50.994;4.538;2022-09-13T15:47:37;5.03;;;3.83;;
15990;SDS011;8100;50.994;4.538;2022-09-13T15:50:26;6.72;;;4.40;;
15990;SDS011;8100;50.994;4.538;2022-09-13T15:53:16;8.52;;;3.90;;
15990;SDS011;8100;50.994;4.538;2022-09-13T15:56:05;6.40;;;4.15;;
15990;SDS011;8100;50.994;4.538;2022-09-13T15:58:53;7.70;;;4.50;;
15990;SDS011;8100;50.994;4.538;2022-09-13T16:01:40;6.90;;;4.57;;
15990;SDS011;8100;50.994;4.538;2022-09-13T16:04:27;7.15;;;4.40;;
15990;SDS011;8100;50.994;4.538;2022-09-13T16:07:16;5.20;;;4.18;;
15990;SDS011;8100;50.994;4.538;2022-09-13T16:10:05;5.05;;;4.20;;
15990;SDS011;8100;50.994;4.538;2022-09-13T16:12:56;5.72;;;4.57;;
15990;SDS011;8100;50.994;4.538;2022-09-13T16:15:43;10.82;;;7.18;;
15990;SDS011;8100;50.994;4.538;2022-09-13T16:18:31;7.80;;;5.05;;
15990;SDS011;8100;50.994;4.538;2022-09-13T16:21:18;8.73;;;5.47;;
15990;SDS011;8100;50.994;4.538;2022-09-13T16:24:07;6.30;;;5.07;;
15990;SDS011;8100;50.994;4.538;2022-09-13T16:26:54;8.38;;;4.93;;
15990;SDS011;8100;50.994;4.538;2022-09-13T16:29:41;6.30;;;4.57;;
15990;SDS011;8100;50.994;4.538;2022-09-13T16:32:28;7.93;;;4.95;;
15990;SDS011;8100;50.994;4.538;2022-09-13T16:35:15;6.85;;;4.53;;
15990;SDS011;8100;50.994;4.538;2022-09-13T16:38:03;5.22;;;4.40;;
15990;SDS011;8100;50.994;4.538;2022-09-13T16:40:51;9.38;;;5.10;;
15990;SDS011;8100;50.994;4.538;2022-09-13T16:43:39;7.45;;;4.68;;
15990;SDS011;8100;50.994;4.538;2022-09-13T16:46:26;9.27;;;4.75;;
15990;SDS011;8100;50.994;4.538;2022-09-13T16:49:15;7.38;;;4.78;;
15990;SDS011;8100;50.994;4.538;2022-09-13T16:52:02;8.10;;;5.07;;
15990;SDS011;8100;50.994;4.538;2022-09-13T16:54:49;9.55;;;5.00;;
15990;SDS011;8100;50.994;4.538;2022-09-13T16:57:38;8.13;;;5.15;;
15990;SDS011;8100;50.994;4.538;2022-09-13T17:00:26;7.90;;;4.88;;
15990;SDS011;8100;50.994;4.538;2022-09-13T17:03:14;9.60;;;6.55;;
15990;SDS011;8100;50.994;4.538;2022-09-13T17:06:02;7.90;;;5.93;;
15990;SDS011;8100;50.994;4.538;2022-09-13T17:08:51;9.60;;;6.00;;
15990;SDS011;8100;50.994;4.538;2022-09-13T17:11:41;7.93;;;5.53;;
15990;SDS011;8100;50.994;4.538;2022-09-13T17:14:31;7.15;;;4.55;;
15990;SDS011;8100;50.994;4.538;2022-09-13T17:17:18;6.88;;;4.80;;
15990;SDS011;8100;50.994;4.538;2022-09-13T17:20:07;7.50;;;4.78;;
15990;SDS011;8100;50.994;4.538;2022-09-13T17:22:57;7.13;;;4.68;;
15990;SDS011;8100;50.994;4.538;2022-09-13T17:25:45;5.95;;;4.45;;
15990;SDS011;8100;50.994;4.538;2022-09-13T17:28:33;5.80;;;4.07;;
15990;SDS011;8100;50.994;4.538;2022-09-13T17:31:22;6.50;;;4.32;;
15990;SDS011;8100;50.994;4.538;2022-09-13T17:34:10;5.97;;;4.20;;
15990;SDS011;8100;50.994;4.538;2022-09-13T17:36:58;6.85;;;4.60;;
15990;SDS011;8100;50.994;4.538;2022-09-13T17:39:45;6.22;;;4.22;;
15990;SDS011;8100;50.994;4.538;2022-09-13T17:42:33;6.00;;;4.40;;
15990;SDS011;8100;50.994;4.538;2022-09-13T17:45:20;5.93;;;4.20;;
15990;SDS011;8100;50.994;4.538;2022-09-13T17:48:09;5.88;;;4.25;;
15990;SDS011;8100;50.994;4.538;2022-09-13T17:51:00;7.15;;;4.82;;
15990;SDS011;8100;50.994;4.538;2022-09-13T17:53:49;6.78;;;3.90;;